createdAt,value
2023-05-09T00:00:07.413Z,11.00
2023-05-09T00:01:08.779Z,11.00
2023-05-09T00:02:09.218Z,11.20
2023-05-09T00:03:10.179Z,11.20
2023-05-09T00:04:11.005Z,11.10
2023-05-09T00:05:12.179Z,10.80
2023-05-09T00:06:12.670Z,11.30
2023-05-09T00:07:13.632Z,11.50
2023-05-09T00:08:14.531Z,11.30
2023-05-09T00:09:15.413Z,11.30
2023-05-09T00:10:16.281Z,11.50
2023-05-09T00:11:17.138Z,11.20
2023-05-09T00:12:18.017Z,10.80
2023-05-09T00:13:19.113Z,11.60
2023-05-09T00:14:19.482Z,11.60
2023-05-09T00:15:20.337Z,11.40
2023-05-09T00:16:21.224Z,10.80
2023-05-09T00:17:22.099Z,10.60
2023-05-09T00:18:22.963Z,11.20
2023-05-09T00:19:23.851Z,11.90
2023-05-09T00:20:24.756Z,11.10
2023-05-09T00:21:25.612Z,11.10
2023-05-09T00:22:26.484Z,11.80
2023-05-09T00:23:27.389Z,11.00
2023-05-09T00:24:28.255Z,11.30
2023-05-09T00:25:29.408Z,11.30
2023-05-09T00:26:29.805Z,11.60
2023-05-09T00:27:30.714Z,11.10
2023-05-09T00:28:31.752Z,11.10
2023-05-09T00:29:32.080Z,10.80
2023-05-09T00:30:32.946Z,11.50
2023-05-09T00:31:33.831Z,11.00
2023-05-09T00:32:34.722Z,10.80
2023-05-09T00:33:35.611Z,11.60
2023-05-09T00:34:36.481Z,10.90
2023-05-09T00:35:37.350Z,11.90
2023-05-09T00:36:38.212Z,11.70
2023-05-09T00:37:39.084Z,11.30
2023-05-09T00:38:39.990Z,10.70
2023-05-09T00:39:40.875Z,11.00
2023-05-09T00:40:41.729Z,11.00
2023-05-09T00:41:42.610Z,10.60
2023-05-09T00:42:43.487Z,11.20
2023-05-09T00:43:44.507Z,10.80
2023-05-09T00:44:45.319Z,10.90
2023-05-09T00:45:46.227Z,10.70
2023-05-09T00:46:47.111Z,10.90
2023-05-09T00:47:47.995Z,11.70
2023-05-09T00:48:48.866Z,11.30
2023-05-09T00:49:49.754Z,11.60
2023-05-09T00:50:50.653Z,10.90
2023-05-09T00:51:51.527Z,11.10
2023-05-09T00:52:52.399Z,11.20
2023-05-09T00:53:53.303Z,11.30
2023-05-09T00:54:54.177Z,11.70
2023-05-09T00:55:55.062Z,11.40
2023-05-09T00:56:55.930Z,11.10
2023-05-09T00:57:56.805Z,11.30
2023-05-09T00:58:57.833Z,10.90
2023-05-09T00:59:58.653Z,11.40
2023-05-09T01:00:59.546Z,11.30
2023-05-09T01:02:00.391Z,11.70
2023-05-09T01:03:01.366Z,11.10
2023-05-09T01:04:02.257Z,11.70
2023-05-09T01:05:03.124Z,11.20
2023-05-09T01:06:04.019Z,11.20
2023-05-09T01:07:04.891Z,11.70
2023-05-09T01:08:05.760Z,11.30
2023-05-09T01:09:06.654Z,11.20
2023-05-09T01:10:08.837Z,11.00
2023-05-09T01:11:08.207Z,11.30
2023-05-09T01:12:09.099Z,11.10
2023-05-09T01:13:09.957Z,11.30
2023-05-09T01:14:10.954Z,12.60
2023-05-09T01:15:11.972Z,11.90
2023-05-09T01:16:12.618Z,11.80
2023-05-09T01:17:13.460Z,11.60
2023-05-09T01:18:14.399Z,11.80
2023-05-09T01:19:14.870Z,11.50
2023-05-09T01:20:15.733Z,11.70
2023-05-09T01:21:16.595Z,11.90
2023-05-09T01:22:17.486Z,12.00
2023-05-09T01:23:18.370Z,11.60
2023-05-09T01:24:19.266Z,11.60
2023-05-09T01:25:20.185Z,11.60
2023-05-09T01:26:21.029Z,11.80
2023-05-09T01:27:21.920Z,11.00
2023-05-09T01:28:22.780Z,11.30
2023-05-09T01:29:23.811Z,12.10
2023-05-09T01:30:24.654Z,11.60
2023-05-09T01:31:25.529Z,11.70
2023-05-09T01:32:26.388Z,12.40
2023-05-09T01:33:27.248Z,11.60
2023-05-09T01:34:28.134Z,11.60
2023-05-09T01:35:29.003Z,12.30
2023-05-09T01:36:29.877Z,12.40
2023-05-09T01:37:30.774Z,11.90
2023-05-09T01:38:31.634Z,11.50
2023-05-09T01:39:32.523Z,12.00
2023-05-09T01:40:33.386Z,12.20
2023-05-09T01:41:34.256Z,11.90
2023-05-09T01:42:35.119Z,11.40
2023-05-09T01:43:36.072Z,11.90
2023-05-09T01:44:37.050Z,11.70
2023-05-09T01:45:37.887Z,11.70
2023-05-09T01:46:38.785Z,11.90
2023-05-09T01:47:39.664Z,11.50
2023-05-09T01:48:40.497Z,11.60
2023-05-09T01:49:42.709Z,11.50
2023-05-09T01:50:42.073Z,12.00
2023-05-09T01:51:43.846Z,12.00
2023-05-09T01:52:43.859Z,12.00
2023-05-09T01:53:44.740Z,11.50
2023-05-09T01:54:45.628Z,11.10
2023-05-09T01:55:46.518Z,12.90
2023-05-09T01:56:47.384Z,12.00
2023-05-09T01:57:48.277Z,12.10
2023-05-09T01:58:49.152Z,11.70
2023-05-09T01:59:50.166Z,11.80
2023-05-09T02:00:51.047Z,11.50
2023-05-09T02:01:51.889Z,11.70
2023-05-09T02:02:52.946Z,11.10
2023-05-09T02:03:53.458Z,11.70
2023-05-09T02:04:54.350Z,11.90
2023-05-09T02:05:55.204Z,11.80
2023-05-09T02:06:56.088Z,11.80
2023-05-09T02:07:56.948Z,11.70
2023-05-09T02:08:57.832Z,11.40
2023-05-09T02:09:58.714Z,11.80
2023-05-09T02:10:59.647Z,11.80
2023-05-09T02:12:00.501Z,11.70
2023-05-09T02:13:01.448Z,12.10
2023-05-09T02:14:02.323Z,11.70
2023-05-09T02:15:03.344Z,12.10
2023-05-09T02:16:04.156Z,12.60
2023-05-09T02:17:05.132Z,11.80
2023-05-09T02:18:06.107Z,11.90
2023-05-09T02:19:07.235Z,11.80
2023-05-09T02:20:07.644Z,12.50
2023-05-09T02:21:08.545Z,12.00
2023-05-09T02:22:09.384Z,11.70
2023-05-09T02:23:10.294Z,11.70
2023-05-09T02:24:11.161Z,11.30
2023-05-09T02:25:12.250Z,11.70
2023-05-09T02:26:12.692Z,11.40
2023-05-09T02:27:13.557Z,11.60
2023-05-09T02:28:14.433Z,11.70
2023-05-09T02:29:15.356Z,12.30
2023-05-09T02:30:16.383Z,11.90
2023-05-09T02:31:16.705Z,12.60
2023-05-09T02:32:17.591Z,11.60
2023-05-09T02:33:18.468Z,12.30
2023-05-09T02:34:19.346Z,12.80
2023-05-09T02:35:20.279Z,11.10
2023-05-09T02:36:21.140Z,11.70
2023-05-09T02:37:22.004Z,11.50
2023-05-09T02:38:22.874Z,11.30
2023-05-09T02:39:23.737Z,11.50
2023-05-09T02:40:24.629Z,11.60
2023-05-09T02:41:25.540Z,11.70
2023-05-09T02:42:26.395Z,11.60
2023-05-09T02:43:27.253Z,11.90
2023-05-09T02:44:28.126Z,11.90
2023-05-09T02:45:29.149Z,12.10
2023-05-09T02:46:30.033Z,11.90
2023-05-09T02:47:30.913Z,12.20
2023-05-09T02:48:31.777Z,11.70
2023-05-09T02:49:32.958Z,12.20
2023-05-09T02:50:33.305Z,12.50
2023-05-09T02:51:34.176Z,12.00
2023-05-09T02:52:35.037Z,12.30
2023-05-09T02:53:35.919Z,11.70
2023-05-09T02:54:36.826Z,11.80
2023-05-09T02:55:37.705Z,11.70
2023-05-09T02:56:38.586Z,11.90
2023-05-09T02:57:39.530Z,12.50
2023-05-09T02:58:40.345Z,12.10
2023-05-09T02:59:41.214Z,12.60
2023-05-09T03:00:42.236Z,11.60
2023-05-09T03:01:43.103Z,12.20
2023-05-09T03:02:44.000Z,11.60
2023-05-09T03:03:44.936Z,11.70
2023-05-09T03:04:45.398Z,12.30
2023-05-09T03:05:46.333Z,12.10
2023-05-09T03:06:47.169Z,11.70
2023-05-09T03:07:48.052Z,11.60
2023-05-09T03:08:48.911Z,12.50
2023-05-09T03:09:49.801Z,11.40
2023-05-09T03:10:50.690Z,12.40
2023-05-09T03:11:51.587Z,11.60
2023-05-09T03:12:52.498Z,11.60
2023-05-09T03:13:53.328Z,11.90
2023-05-09T03:14:54.215Z,12.10
2023-05-09T03:15:55.262Z,11.50
2023-05-09T03:16:55.583Z,11.60
2023-05-09T03:17:56.502Z,11.70
2023-05-09T03:18:57.423Z,11.70
2023-05-09T03:19:58.310Z,11.90
2023-05-09T03:20:59.231Z,11.60
2023-05-09T03:22:00.158Z,11.30
2023-05-09T03:23:01.009Z,11.60
2023-05-09T03:24:01.889Z,10.90
2023-05-09T03:25:02.785Z,12.00
2023-05-09T03:26:03.647Z,11.80
2023-05-09T03:27:04.530Z,11.70
2023-05-09T03:28:05.423Z,11.90
2023-05-09T03:29:06.337Z,11.60
2023-05-09T03:30:07.170Z,11.40
2023-05-09T03:31:08.249Z,11.80
2023-05-09T03:32:08.601Z,11.70
2023-05-09T03:33:09.518Z,11.70
2023-05-09T03:34:10.384Z,12.20
2023-05-09T03:35:11.262Z,11.40
2023-05-09T03:36:12.155Z,11.70
2023-05-09T03:37:13.039Z,11.70
2023-05-09T03:38:13.949Z,12.40
2023-05-09T03:39:14.818Z,11.70
2023-05-09T03:40:15.687Z,11.90
2023-05-09T03:41:16.591Z,11.60
2023-05-09T03:42:17.474Z,11.90
2023-05-09T03:43:18.343Z,11.30
2023-05-09T03:44:19.251Z,11.40
2023-05-09T03:45:20.088Z,11.70
2023-05-09T03:46:21.145Z,11.50
2023-05-09T03:47:21.484Z,11.40
2023-05-09T03:48:22.391Z,11.60
2023-05-09T03:49:23.275Z,11.20
2023-05-09T03:50:24.157Z,11.50
2023-05-09T03:51:25.043Z,10.70
2023-05-09T03:52:25.898Z,11.40
2023-05-09T03:53:26.767Z,11.40
2023-05-09T03:54:27.647Z,11.20
2023-05-09T03:55:28.507Z,11.80
2023-05-09T03:56:29.405Z,11.70
2023-05-09T03:57:30.284Z,11.40
2023-05-09T03:58:31.167Z,11.50
2023-05-09T03:59:32.039Z,11.20
2023-05-09T04:00:32.912Z,11.70
2023-05-09T04:01:33.989Z,11.00
2023-05-09T04:02:34.479Z,11.50
2023-05-09T04:03:35.009Z,10.70
2023-05-09T04:04:35.410Z,11.50
2023-05-09T04:05:36.285Z,11.50
2023-05-09T04:06:37.175Z,11.10
2023-05-09T04:07:38.056Z,11.90
2023-05-09T04:08:38.952Z,11.40
2023-05-09T04:09:39.857Z,11.60
2023-05-09T04:10:40.704Z,11.40
2023-05-09T04:11:41.613Z,11.60
2023-05-09T04:12:42.493Z,11.20
2023-05-09T04:13:43.372Z,10.60
2023-05-09T04:14:46.156Z,11.40
2023-05-09T04:15:51.381Z,11.30
2023-05-09T04:16:45.910Z,11.10
2023-05-09T04:17:46.303Z,11.10
2023-05-09T04:18:47.187Z,11.10
2023-05-09T04:19:48.071Z,10.70
2023-05-09T04:20:48.928Z,10.60
2023-05-09T04:21:49.871Z,10.90
2023-05-09T04:22:50.711Z,11.40
2023-05-09T04:23:51.592Z,10.60
2023-05-09T04:24:52.459Z,11.30
2023-05-09T04:25:53.348Z,10.60
2023-05-09T04:26:54.236Z,10.50
2023-05-09T04:27:55.150Z,10.80
2023-05-09T04:28:55.984Z,9.80
2023-05-09T04:29:56.860Z,10.50
2023-05-09T04:30:57.823Z,10.80
2023-05-09T04:31:58.924Z,11.10
2023-05-09T04:32:59.295Z,10.70
2023-05-09T04:34:00.179Z,10.30
2023-05-09T04:35:01.026Z,11.20
2023-05-09T04:36:01.899Z,11.20
2023-05-09T04:37:02.813Z,10.50
2023-05-09T04:38:03.687Z,10.90
2023-05-09T04:39:04.563Z,11.00
2023-05-09T04:40:05.443Z,10.80
2023-05-09T04:41:06.331Z,10.40
2023-05-09T04:42:07.226Z,10.30
2023-05-09T04:43:08.101Z,10.80
2023-05-09T04:44:08.942Z,10.50
2023-05-09T04:45:09.812Z,11.40
2023-05-09T04:46:10.720Z,10.80
2023-05-09T04:47:11.711Z,10.70
2023-05-09T04:48:12.527Z,10.20
2023-05-09T04:49:13.690Z,10.50
2023-05-09T04:50:14.055Z,10.50
2023-05-09T04:51:14.931Z,10.50
2023-05-09T04:52:15.832Z,10.90
2023-05-09T04:53:16.719Z,10.90
2023-05-09T04:54:17.610Z,10.60
2023-05-09T04:55:18.462Z,11.00
2023-05-09T04:56:19.365Z,10.50
2023-05-09T04:57:20.245Z,11.20
2023-05-09T04:58:21.874Z,11.50
2023-05-09T04:59:21.740Z,10.70
2023-05-09T05:00:22.629Z,10.80
2023-05-09T05:01:23.546Z,11.30
2023-05-09T05:02:24.572Z,11.10
2023-05-09T05:03:24.924Z,11.50
2023-05-09T05:04:25.825Z,11.10
2023-05-09T05:05:26.897Z,10.90
2023-05-09T05:06:27.484Z,11.50
2023-05-09T05:07:28.375Z,12.20
2023-05-09T05:08:29.267Z,11.50
2023-05-09T05:09:30.124Z,10.40
2023-05-09T05:10:30.998Z,11.40
2023-05-09T05:11:31.856Z,10.90
2023-05-09T05:12:32.752Z,11.00
2023-05-09T05:13:33.657Z,11.30
2023-05-09T05:14:34.495Z,11.10
2023-05-09T05:15:35.373Z,10.90
2023-05-09T05:16:36.252Z,10.50
2023-05-09T05:17:37.331Z,10.90
2023-05-09T05:18:37.680Z,10.80
2023-05-09T05:19:38.839Z,11.10
2023-05-09T05:20:39.210Z,11.20
2023-05-09T05:21:40.091Z,10.90
2023-05-09T05:22:41.015Z,10.90
2023-05-09T05:23:41.885Z,11.10
2023-05-09T05:24:42.769Z,11.60
2023-05-09T05:25:43.668Z,10.80
2023-05-09T05:26:44.531Z,11.20
2023-05-09T05:27:45.432Z,11.40
2023-05-09T05:28:46.298Z,11.30
2023-05-09T05:29:47.185Z,11.20
2023-05-09T05:30:48.043Z,12.80
2023-05-09T05:31:48.996Z,11.30
2023-05-09T05:32:50.094Z,10.90
2023-05-09T05:33:50.448Z,11.60
2023-05-09T05:34:51.325Z,11.00
2023-05-09T05:35:52.196Z,11.10
2023-05-09T05:36:53.067Z,11.00
2023-05-09T05:37:54.000Z,11.30
2023-05-09T05:38:54.853Z,11.30
2023-05-09T05:39:55.777Z,11.30
2023-05-09T05:40:56.850Z,11.40
2023-05-09T05:41:57.328Z,10.90
2023-05-09T05:42:58.240Z,11.30
2023-05-09T05:43:59.123Z,11.70
2023-05-09T05:44:59.993Z,11.60
2023-05-09T05:46:00.954Z,10.60
2023-05-09T05:47:01.788Z,11.00
2023-05-09T05:48:02.978Z,10.70
2023-05-09T05:49:03.410Z,11.40
2023-05-09T05:50:04.317Z,11.10
2023-05-09T05:51:05.259Z,11.40
2023-05-09T05:52:05.620Z,11.40
2023-05-09T05:53:06.566Z,11.20
2023-05-09T05:54:08.466Z,11.10
2023-05-09T05:55:08.894Z,11.10
2023-05-09T05:56:09.313Z,10.90
2023-05-09T05:57:10.157Z,10.80
2023-05-09T05:58:11.061Z,10.70
2023-05-09T05:59:13.500Z,11.20
2023-05-09T06:00:12.547Z,10.60
2023-05-09T06:01:13.477Z,11.10
2023-05-09T06:02:14.467Z,11.20
2023-05-09T06:03:15.532Z,11.90
2023-05-09T06:04:15.976Z,11.90
2023-05-09T06:05:16.676Z,11.50
2023-05-09T06:06:17.179Z,10.90
2023-05-09T06:07:18.104Z,12.10
2023-05-09T06:08:19.027Z,11.50
2023-05-09T06:09:19.998Z,11.80
2023-05-09T06:10:20.436Z,11.60
2023-05-09T06:11:21.463Z,11.50
2023-05-09T06:12:21.865Z,12.50
2023-05-09T06:13:22.907Z,11.90
2023-05-09T06:14:23.414Z,13.10
2023-05-09T06:15:23.813Z,12.20
2023-05-09T06:16:24.845Z,12.80
2023-05-09T06:17:25.770Z,12.10
2023-05-09T06:18:26.792Z,12.70
2023-05-09T06:19:28.386Z,12.60
2023-05-09T06:20:28.694Z,12.70
2023-05-09T06:21:29.130Z,13.10
2023-05-09T06:22:30.099Z,11.80
2023-05-09T06:23:31.058Z,13.00
2023-05-09T06:24:35.882Z,13.00
2023-05-09T06:25:33.075Z,12.70
2023-05-09T06:26:33.446Z,12.30
2023-05-09T06:27:34.316Z,13.00
2023-05-09T06:28:35.238Z,12.80
2023-05-09T06:29:36.151Z,12.80
2023-05-09T06:30:37.132Z,12.60
2023-05-09T06:31:37.600Z,12.40
2023-05-09T06:32:38.605Z,13.00
2023-05-09T06:33:39.398Z,13.10
2023-05-09T06:34:39.611Z,12.90
2023-05-09T06:35:40.496Z,13.00
2023-05-09T06:36:41.440Z,12.70
2023-05-09T06:37:42.301Z,13.40
2023-05-09T06:38:43.221Z,13.70
2023-05-09T06:39:44.131Z,13.40
2023-05-09T06:40:44.999Z,12.80
2023-05-09T06:41:45.873Z,13.30
2023-05-09T06:42:46.755Z,13.40
2023-05-09T06:43:48.071Z,13.50
2023-05-09T06:44:48.359Z,13.80
2023-05-09T06:45:49.182Z,13.50
2023-05-09T06:46:49.588Z,14.80
2023-05-09T06:47:50.518Z,13.40
2023-05-09T06:48:51.429Z,13.40
2023-05-09T06:49:52.352Z,14.80
2023-05-09T06:50:53.251Z,14.20
2023-05-09T06:51:54.137Z,14.60
2023-05-09T06:52:55.030Z,15.20
2023-05-09T06:53:55.979Z,14.90
2023-05-09T06:54:57.217Z,14.50
2023-05-09T06:55:57.625Z,15.30
2023-05-09T06:56:58.583Z,14.70
2023-05-09T06:57:59.470Z,14.80
2023-05-09T06:59:00.456Z,14.90
2023-05-09T07:00:01.178Z,14.40
2023-05-09T07:01:02.161Z,15.30
2023-05-09T07:02:02.679Z,15.10
2023-05-09T07:03:03.826Z,14.70
2023-05-09T07:04:04.717Z,15.00
2023-05-09T07:05:05.224Z,14.20
2023-05-09T07:06:06.198Z,14.60
2023-05-09T07:07:07.095Z,15.00
2023-05-09T07:08:08.006Z,14.90
2023-05-09T07:09:09.012Z,15.20
2023-05-09T07:10:11.824Z,15.10
2023-05-09T07:11:10.769Z,15.10
2023-05-09T07:12:11.707Z,16.00
2023-05-09T07:13:12.252Z,15.10
2023-05-09T07:14:12.710Z,16.10
2023-05-09T07:15:15.519Z,15.50
2023-05-09T07:16:14.381Z,15.70
2023-05-09T07:17:22.796Z,14.80
2023-05-09T07:18:16.526Z,15.30
2023-05-09T07:19:16.599Z,14.90
2023-05-09T07:20:16.947Z,15.50
2023-05-09T07:21:19.513Z,15.40
2023-05-09T07:22:18.437Z,15.10
2023-05-09T07:23:19.292Z,15.10
2023-05-09T07:24:20.226Z,16.10
2023-05-09T07:25:21.150Z,15.70
2023-05-09T07:26:22.051Z,16.30
2023-05-09T07:27:22.956Z,16.70
2023-05-09T07:28:23.840Z,17.10
2023-05-09T07:29:24.766Z,16.20
2023-05-09T07:30:25.688Z,17.10
2023-05-09T07:31:26.605Z,16.10
2023-05-09T07:32:27.619Z,16.60
2023-05-09T07:33:28.093Z,16.30
2023-05-09T07:34:31.450Z,16.40
2023-05-09T07:35:29.788Z,16.30
2023-05-09T07:36:30.677Z,15.70
2023-05-09T07:37:31.557Z,15.30
2023-05-09T07:38:32.520Z,15.70
2023-05-09T07:39:33.497Z,16.20
2023-05-09T07:40:34.326Z,16.00
2023-05-09T07:41:35.213Z,16.50
2023-05-09T07:42:36.084Z,16.60
2023-05-09T07:43:37.017Z,15.40
2023-05-09T07:44:37.925Z,16.00
2023-05-09T07:45:38.830Z,15.70
2023-05-09T07:46:39.718Z,15.60
2023-05-09T07:47:40.629Z,15.70
2023-05-09T07:48:41.552Z,16.10
2023-05-09T07:49:42.146Z,14.80
2023-05-09T07:50:43.453Z,15.70
2023-05-09T07:51:43.677Z,15.40
2023-05-09T07:52:44.939Z,16.40
2023-05-09T07:53:45.150Z,15.00
2023-05-09T07:54:45.988Z,16.80
2023-05-09T07:55:46.470Z,16.80
2023-05-09T07:56:47.511Z,15.80
2023-05-09T07:57:48.223Z,15.50
2023-05-09T07:58:48.595Z,16.00
2023-05-09T07:59:49.612Z,15.40
2023-05-09T08:00:50.316Z,15.50
2023-05-09T08:01:50.945Z,17.00
2023-05-09T08:02:51.614Z,16.90
2023-05-09T08:03:52.186Z,16.50
2023-05-09T08:04:54.177Z,15.70
2023-05-09T08:05:53.783Z,16.50
2023-05-09T08:06:54.263Z,16.90
2023-05-09T08:07:55.208Z,16.50
2023-05-09T08:08:56.112Z,16.70
2023-05-09T08:09:57.030Z,16.40
2023-05-09T08:10:58.139Z,15.50
2023-05-09T08:11:58.602Z,15.80
2023-05-09T08:12:59.717Z,16.60
2023-05-09T08:14:00.141Z,15.70
2023-05-09T08:15:01.211Z,16.40
2023-05-09T08:16:01.899Z,16.20
2023-05-09T08:17:02.430Z,16.80
2023-05-09T08:18:03.629Z,17.00
2023-05-09T08:19:04.229Z,17.10
2023-05-09T08:20:12.334Z,16.70
2023-05-09T08:21:06.587Z,17.30
2023-05-09T08:22:07.027Z,16.80
2023-05-09T08:23:07.249Z,17.40
2023-05-09T08:24:08.947Z,17.00
2023-05-09T08:25:08.488Z,16.40
2023-05-09T08:26:10.192Z,17.40
2023-05-09T08:27:10.246Z,16.70
2023-05-09T08:28:10.447Z,15.80
2023-05-09T08:29:10.977Z,17.70
2023-05-09T08:30:11.493Z,17.20
2023-05-09T08:31:12.329Z,16.00
2023-05-09T08:32:12.822Z,16.20
2023-05-09T08:33:13.988Z,16.10
2023-05-09T08:34:15.005Z,15.70
2023-05-09T08:35:15.318Z,16.60
2023-05-09T08:36:15.541Z,15.80
2023-05-09T08:37:16.326Z,15.80
2023-05-09T08:38:17.000Z,16.40
2023-05-09T08:39:17.567Z,15.90
2023-05-09T08:40:19.041Z,16.60
2023-05-09T08:41:18.904Z,15.70
2023-05-09T08:42:19.884Z,16.30
2023-05-09T08:43:20.536Z,16.80
2023-05-09T08:44:21.167Z,16.90
2023-05-09T08:45:21.767Z,17.20
2023-05-09T08:46:22.365Z,16.50
2023-05-09T08:47:23.078Z,16.20
2023-05-09T08:48:23.773Z,16.20
2023-05-09T08:49:24.442Z,16.30
2023-05-09T08:50:24.970Z,16.40
2023-05-09T08:51:25.439Z,17.50
2023-05-09T08:52:26.471Z,16.50
2023-05-09T08:53:26.903Z,15.60
2023-05-09T08:54:27.990Z,16.50
2023-05-09T08:55:28.696Z,16.00
2023-05-09T08:56:29.552Z,16.60
2023-05-09T08:57:30.095Z,17.00
2023-05-09T08:58:30.721Z,17.10
2023-05-09T08:59:32.010Z,16.60
2023-05-09T09:00:32.526Z,17.20
2023-05-09T09:01:33.150Z,16.80
2023-05-09T09:02:33.619Z,17.30
2023-05-09T09:03:35.789Z,16.70
2023-05-09T09:04:35.331Z,17.50
2023-05-09T09:05:42.020Z,17.00
2023-05-09T09:06:37.784Z,17.10
2023-05-09T09:07:37.178Z,16.80
2023-05-09T09:08:38.077Z,16.60
2023-05-09T09:09:39.015Z,17.10
2023-05-09T09:10:40.523Z,16.10
2023-05-09T09:11:40.997Z,16.60
2023-05-09T09:12:41.559Z,16.70
2023-05-09T09:13:42.529Z,15.70
2023-05-09T09:14:43.057Z,16.90
2023-05-09T09:15:43.757Z,15.30
2023-05-09T09:16:44.319Z,14.50
2023-05-09T09:17:44.814Z,15.20
2023-05-09T09:18:45.766Z,14.20
2023-05-09T09:19:46.473Z,15.80
2023-05-09T09:20:46.979Z,14.20
2023-05-09T09:21:47.387Z,14.50
2023-05-09T09:22:48.367Z,13.80
2023-05-09T09:23:49.302Z,14.70
2023-05-09T09:24:49.808Z,13.40
2023-05-09T09:25:50.800Z,13.70
2023-05-09T09:26:51.772Z,14.30
2023-05-09T09:27:52.299Z,13.50
2023-05-09T09:28:52.832Z,13.90
2023-05-09T09:29:53.782Z,13.20
2023-05-09T09:30:54.848Z,13.10
2023-05-09T09:31:55.410Z,13.00
2023-05-09T09:32:55.867Z,13.50
2023-05-09T09:33:56.811Z,12.70
2023-05-09T09:34:57.719Z,13.50
2023-05-09T09:35:58.747Z,14.20
2023-05-09T09:36:59.596Z,14.10
2023-05-09T09:38:00.630Z,14.00
2023-05-09T09:39:01.678Z,13.30
2023-05-09T09:40:01.894Z,13.70
2023-05-09T09:41:03.023Z,12.90
2023-05-09T09:42:03.123Z,13.00
2023-05-09T09:43:03.657Z,12.90
2023-05-09T09:44:05.111Z,13.40
2023-05-09T09:45:05.268Z,14.10
2023-05-09T09:46:06.222Z,14.00
2023-05-09T09:47:06.840Z,14.50
2023-05-09T09:48:07.430Z,14.30
2023-05-09T09:49:07.800Z,13.90
2023-05-09T09:50:08.772Z,14.50
2023-05-09T09:51:11.103Z,14.70
2023-05-09T09:52:10.623Z,14.70
2023-05-09T09:53:11.168Z,14.40
2023-05-09T09:54:12.076Z,14.50
2023-05-09T09:55:13.123Z,13.90
2023-05-09T09:56:13.535Z,13.90
2023-05-09T09:57:14.477Z,13.70
2023-05-09T09:58:15.396Z,13.30
2023-05-09T09:59:16.340Z,13.70
2023-05-09T10:00:17.512Z,13.60
2023-05-09T10:01:18.281Z,13.50
2023-05-09T10:02:18.708Z,13.50
2023-05-09T10:03:19.662Z,13.50
2023-05-09T10:04:20.516Z,14.20
2023-05-09T10:05:21.446Z,13.10
2023-05-09T10:06:22.110Z,14.40
2023-05-09T10:07:22.444Z,14.30
2023-05-09T10:08:23.387Z,14.50
2023-05-09T10:09:24.274Z,13.60
2023-05-09T10:10:25.223Z,13.80
2023-05-09T10:11:26.196Z,14.00
2023-05-09T10:12:27.106Z,13.90
2023-05-09T10:13:28.033Z,14.20
2023-05-09T10:14:28.905Z,13.10
2023-05-09T10:15:33.494Z,14.10
2023-05-09T10:16:40.181Z,14.50
2023-05-09T10:17:32.591Z,13.70
2023-05-09T10:18:32.304Z,13.60
2023-05-09T10:19:32.854Z,14.10
2023-05-09T10:20:33.769Z,13.40
2023-05-09T10:21:36.198Z,13.50
2023-05-09T10:22:36.507Z,13.80
2023-05-09T10:23:36.342Z,12.60
2023-05-09T10:24:37.646Z,12.10
2023-05-09T10:25:38.159Z,14.00
2023-05-09T10:26:39.153Z,13.30
2023-05-09T10:27:40.090Z,12.90
2023-05-09T10:28:41.035Z,12.00
2023-05-09T10:29:41.938Z,12.80
2023-05-09T10:30:42.689Z,12.10
2023-05-09T10:31:43.696Z,14.20
2023-05-09T10:32:45.526Z,13.80
2023-05-09T10:33:45.441Z,13.30
2023-05-09T10:34:46.325Z,13.70
2023-05-09T10:35:47.259Z,12.90
2023-05-09T10:36:48.574Z,12.90
2023-05-09T10:37:48.926Z,12.80
2023-05-09T10:38:49.806Z,12.70
2023-05-09T10:39:51.529Z,13.30
2023-05-09T10:40:51.440Z,14.40
2023-05-09T10:41:53.321Z,13.50
2023-05-09T10:42:52.798Z,13.50
2023-05-09T10:43:54.535Z,12.30
2023-05-09T10:44:54.555Z,13.80
2023-05-09T10:45:55.414Z,13.30
2023-05-09T10:46:57.115Z,14.20
2023-05-09T10:47:57.038Z,14.30
2023-05-09T10:48:57.987Z,15.00
2023-05-09T10:49:58.895Z,13.90
2023-05-09T10:50:59.781Z,14.00
2023-05-09T10:52:01.042Z,13.20
2023-05-09T10:53:01.411Z,14.90
2023-05-09T10:54:02.296Z,14.50
2023-05-09T10:55:03.200Z,13.50
2023-05-09T10:56:04.153Z,14.30
2023-05-09T10:57:05.587Z,12.90
2023-05-09T10:58:06.962Z,13.20
2023-05-09T10:59:06.838Z,14.00
2023-05-09T11:00:07.725Z,13.30
2023-05-09T11:01:08.783Z,12.90
2023-05-09T11:02:09.676Z,12.90
2023-05-09T11:03:10.651Z,12.00
2023-05-09T11:04:11.607Z,11.40
2023-05-09T11:05:12.646Z,12.00
2023-05-09T11:06:13.157Z,11.60
2023-05-09T11:07:14.212Z,11.20
2023-05-09T11:08:14.546Z,11.00
2023-05-09T11:09:16.009Z,10.20
2023-05-09T11:10:16.506Z,9.80
2023-05-09T11:11:17.391Z,10.10
2023-05-09T11:12:18.313Z,9.80
2023-05-09T11:13:19.266Z,9.60
2023-05-09T11:14:21.047Z,10.30
2023-05-09T11:15:20.967Z,9.50
2023-05-09T11:16:21.877Z,9.70
2023-05-09T11:17:23.034Z,9.70
2023-05-09T11:18:23.473Z,9.80
2023-05-09T11:19:24.382Z,9.50
2023-05-09T11:20:25.304Z,9.20
2023-05-09T11:21:26.176Z,10.00
2023-05-09T11:22:27.176Z,9.20
2023-05-09T11:23:28.015Z,9.80
2023-05-09T11:24:28.906Z,9.00
2023-05-09T11:25:29.800Z,8.70
2023-05-09T11:26:30.761Z,9.10
2023-05-09T11:27:31.647Z,9.40
2023-05-09T11:28:32.593Z,9.10
2023-05-09T11:29:33.526Z,9.10
2023-05-09T11:30:34.434Z,8.90
2023-05-09T11:31:35.904Z,8.70
2023-05-09T11:32:36.361Z,9.30
2023-05-09T11:33:37.205Z,9.00
2023-05-09T11:34:38.429Z,10.20
2023-05-09T11:35:38.783Z,8.70
2023-05-09T11:36:39.746Z,9.60
2023-05-09T11:37:41.578Z,9.20
2023-05-09T11:38:41.512Z,9.30
2023-05-09T11:39:42.501Z,10.10
2023-05-09T11:40:43.426Z,10.30
2023-05-09T11:41:44.332Z,9.70
2023-05-09T11:42:45.239Z,9.30
2023-05-09T11:43:46.222Z,9.50
2023-05-09T11:44:46.792Z,9.60
2023-05-09T11:45:47.676Z,9.70
2023-05-09T11:46:49.052Z,9.20
2023-05-09T11:47:49.482Z,9.50
2023-05-09T11:48:50.318Z,9.70
2023-05-09T11:49:51.222Z,10.00
2023-05-09T11:50:52.114Z,10.30
2023-05-09T11:51:52.988Z,10.60
2023-05-09T11:52:54.404Z,10.30
2023-05-09T11:53:54.750Z,10.10
2023-05-09T11:54:55.628Z,10.10
2023-05-09T11:55:56.550Z,10.00
2023-05-09T11:56:58.054Z,9.60
2023-05-09T11:57:57.990Z,10.00
2023-05-09T11:58:58.863Z,10.50
2023-05-09T11:59:59.786Z,10.60
2023-05-09T12:01:00.719Z,10.80
2023-05-09T12:02:01.604Z,10.60
2023-05-09T12:03:02.617Z,10.80
2023-05-09T12:04:03.170Z,10.60
2023-05-09T12:05:03.599Z,12.00
2023-05-09T12:06:04.504Z,11.20
2023-05-09T12:07:05.382Z,11.80
2023-05-09T12:08:06.426Z,12.20
2023-05-09T12:09:07.251Z,13.40
2023-05-09T12:10:08.219Z,12.30
2023-05-09T12:11:09.080Z,12.70
2023-05-09T12:12:09.963Z,13.00
2023-05-09T12:13:10.930Z,12.90
2023-05-09T12:14:11.826Z,12.50
2023-05-09T12:15:12.834Z,12.00
2023-05-09T12:16:13.269Z,11.80
2023-05-09T12:17:14.152Z,12.80
2023-05-09T12:18:15.203Z,12.00
2023-05-09T12:19:15.563Z,12.10
2023-05-09T12:20:17.049Z,11.90
2023-05-09T12:21:18.086Z,12.90
2023-05-09T12:24:02.658Z,13.80
2023-05-09T12:25:02.991Z,13.70
2023-05-09T12:26:03.873Z,13.50
2023-05-09T12:27:04.766Z,13.10
2023-05-09T12:28:05.627Z,13.10
2023-05-09T12:29:06.532Z,13.40
2023-05-09T12:30:07.747Z,12.90
2023-05-09T12:31:08.207Z,13.10
2023-05-09T12:32:09.098Z,13.20
2023-05-09T12:33:10.036Z,14.10
2023-05-09T12:34:10.938Z,13.40
2023-05-09T12:35:11.826Z,12.00
2023-05-09T12:36:12.703Z,12.10
2023-05-09T12:37:13.950Z,12.00
2023-05-09T12:38:14.337Z,12.80
2023-05-09T12:39:15.350Z,12.50
2023-05-09T12:40:16.181Z,11.50
2023-05-09T12:41:30.911Z,12.10
2023-05-09T12:42:18.836Z,12.50
2023-05-09T12:43:19.081Z,12.90
2023-05-09T12:44:19.490Z,13.50
2023-05-09T12:45:20.426Z,13.10
2023-05-09T12:46:21.296Z,13.20
2023-05-09T12:47:22.239Z,13.80
2023-05-09T12:48:23.119Z,13.60
2023-05-09T12:49:24.044Z,13.10
2023-05-09T12:50:24.930Z,14.10
2023-05-09T12:51:25.823Z,12.60
2023-05-09T12:52:27.586Z,13.20
2023-05-09T12:53:27.491Z,14.70
2023-05-09T12:54:28.553Z,14.30
2023-05-09T12:55:28.928Z,13.70
2023-05-09T12:56:29.810Z,13.80
2023-05-09T12:57:31.764Z,12.70
2023-05-09T12:58:32.096Z,12.90
2023-05-09T12:59:32.008Z,12.80
2023-05-09T13:00:32.930Z,11.80
2023-05-09T13:01:34.162Z,12.80
2023-05-09T13:02:34.575Z,12.00
2023-05-09T13:03:35.529Z,12.70
2023-05-09T13:04:36.458Z,11.70
2023-05-09T13:05:37.323Z,11.90